sensor_id;sensor_type;location;lat;lon;timestamp;P1;durP1;ratioP1;P2;durP2;ratioP2
11006;SDS011;8186;57.652;11.968;2024-01-15T00:00:50;7.23;;;1.67;;
11006;SDS011;8186;57.652;11.968;2024-01-15T00:03:18;1.97;;;1.30;;
11006;SDS011;8186;57.652;11.968;2024-01-15T00:05:45;3.53;;;1.70;;
11006;SDS011;8186;57.652;11.968;2024-01-15T00:08:12;4.00;;;1.50;;
11006;SDS011;8186;57.652;11.968;2024-01-15T00:10:39;2.97;;;1.50;;
11006;SDS011;8186;57.652;11.968;2024-01-15T00:13:06;6.67;;;1.77;;
11006;SDS011;8186;57.652;11.968;2024-01-15T00:15:33;4.27;;;1.50;;
11006;SDS011;8186;57.652;11.968;2024-01-15T00:18:00;2.63;;;1.40;;
11006;SDS011;8186;57.652;11.968;2024-01-15T00:20:28;5.00;;;1.80;;
11006;SDS011;8186;57.652;11.968;2024-01-15T00:22:55;3.80;;;2.00;;
11006;SDS011;8186;57.652;11.968;2024-01-15T00:25:21;2.97;;;1.63;;
11006;SDS011;8186;57.652;11.968;2024-01-15T00:27:49;4.20;;;1.70;;
11006;SDS011;8186;57.652;11.968;2024-01-15T00:30:15;2.60;;;1.60;;
11006;SDS011;8186;57.652;11.968;2024-01-15T00:32:42;4.50;;;1.53;;
11006;SDS011;8186;57.652;11.968;2024-01-15T00:35:09;2.63;;;1.73;;
11006;SDS011;8186;57.652;11.968;2024-01-15T00:37:37;3.00;;;1.70;;
11006;SDS011;8186;57.652;11.968;2024-01-15T00:40:05;3.13;;;1.57;;
11006;SDS011;8186;57.652;11.968;2024-01-15T00:42:33;1.87;;;1.33;;
11006;SDS011;8186;57.652;11.968;2024-01-15T00:44:59;1.97;;;1.27;;
11006;SDS011;8186;57.652;11.968;2024-01-15T00:47:26;5.23;;;1.50;;
11006;SDS011;8186;57.652;11.968;2024-01-15T00:49:53;3.37;;;1.40;;
11006;SDS011;8186;57.652;11.968;2024-01-15T00:52:20;3.57;;;1.00;;
11006;SDS011;8186;57.652;11.968;2024-01-15T00:54:48;2.80;;;1.27;;
11006;SDS011;8186;57.652;11.968;2024-01-15T00:57:14;4.27;;;1.30;;
11006;SDS011;8186;57.652;11.968;2024-01-15T00:59:41;3.90;;;1.03;;
11006;SDS011;8186;57.652;11.968;2024-01-15T01:02:08;3.67;;;1.30;;
11006;SDS011;8186;57.652;11.968;2024-01-15T01:04:35;2.03;;;1.20;;
11006;SDS011;8186;57.652;11.968;2024-01-15T01:07:01;2.47;;;1.17;;
11006;SDS011;8186;57.652;11.968;2024-01-15T01:09:28;2.50;;;1.30;;
11006;SDS011;8186;57.652;11.968;2024-01-15T01:11:56;4.60;;;1.10;;
11006;SDS011;8186;57.652;11.968;2024-01-15T01:14:23;2.90;;;1.27;;
11006;SDS011;8186;57.652;11.968;2024-01-15T01:16:50;1.20;;;1.10;;
11006;SDS011;8186;57.652;11.968;2024-01-15T01:19:17;1.40;;;0.87;;
11006;SDS011;8186;57.652;11.968;2024-01-15T01:21:43;2.87;;;1.07;;
11006;SDS011;8186;57.652;11.968;2024-01-15T01:24:10;2.00;;;1.13;;
11006;SDS011;8186;57.652;11.968;2024-01-15T01:26:38;4.93;;;1.20;;
11006;SDS011;8186;57.652;11.968;2024-01-15T01:29:06;2.40;;;1.10;;
11006;SDS011;8186;57.652;11.968;2024-01-15T01:31:33;5.90;;;1.33;;
11006;SDS011;8186;57.652;11.968;2024-01-15T01:34:00;4.23;;;1.30;;
11006;SDS011;8186;57.652;11.968;2024-01-15T01:36:26;2.83;;;1.30;;
11006;SDS011;8186;57.652;11.968;2024-01-15T01:38:53;2.60;;;1.00;;
11006;SDS011;8186;57.652;11.968;2024-01-15T01:41:20;2.43;;;1.40;;
11006;SDS011;8186;57.652;11.968;2024-01-15T01:43:49;5.43;;;2.67;;
11006;SDS011;8186;57.652;11.968;2024-01-15T01:46:17;3.83;;;2.60;;
11006;SDS011;8186;57.652;11.968;2024-01-15T01:48:44;4.77;;;3.03;;
11006;SDS011;8186;57.652;11.968;2024-01-15T01:51:11;3.77;;;2.77;;
11006;SDS011;8186;57.652;11.968;2024-01-15T01:53:37;7.03;;;2.90;;
11006;SDS011;8186;57.652;11.968;2024-01-15T01:56:04;4.30;;;2.43;;
11006;SDS011;8186;57.652;11.968;2024-01-15T01:58:32;3.23;;;2.40;;
11006;SDS011;8186;57.652;11.968;2024-01-15T02:00:59;2.83;;;2.13;;
11006;SDS011;8186;57.652;11.968;2024-01-15T02:03:28;4.27;;;1.77;;
11006;SDS011;8186;57.652;11.968;2024-01-15T02:05:56;2.20;;;1.53;;
11006;SDS011;8186;57.652;11.968;2024-01-15T02:08:23;3.03;;;1.50;;
11006;SDS011;8186;57.652;11.968;2024-01-15T02:10:49;3.30;;;1.40;;
11006;SDS011;8186;57.652;11.968;2024-01-15T02:13:16;4.17;;;1.70;;
11006;SDS011;8186;57.652;11.968;2024-01-15T02:15:43;0.90;;;0.63;;
11006;SDS011;8186;57.652;11.968;2024-01-15T02:18:10;0.93;;;0.70;;
11006;SDS011;8186;57.652;11.968;2024-01-15T02:20:38;0.47;;;0.40;;
11006;SDS011;8186;57.652;11.968;2024-01-15T02:23:09;0.50;;;0.40;;
11006;SDS011;8186;57.652;11.968;2024-01-15T02:25:37;0.47;;;0.47;;
11006;SDS011;8186;57.652;11.968;2024-01-15T02:28:04;0.40;;;0.40;;
11006;SDS011;8186;57.652;11.968;2024-01-15T02:30:32;0.40;;;0.40;;
11006;SDS011;8186;57.652;11.968;2024-01-15T02:32:58;0.60;;;0.43;;
11006;SDS011;8186;57.652;11.968;2024-01-15T02:35:25;0.43;;;0.30;;
11006;SDS011;8186;57.652;11.968;2024-01-15T02:37:52;0.50;;;0.30;;
11006;SDS011;8186;57.652;11.968;2024-01-15T02:40:20;0.30;;;0.30;;
11006;SDS011;8186;57.652;11.968;2024-01-15T02:42:47;0.50;;;0.40;;
11006;SDS011;8186;57.652;11.968;2024-01-15T02:45:14;0.50;;;0.50;;
11006;SDS011;8186;57.652;11.968;2024-01-15T02:47:40;0.40;;;0.40;;
11006;SDS011;8186;57.652;11.968;2024-01-15T02:50:07;0.30;;;0.30;;
11006;SDS011;8186;57.652;11.968;2024-01-15T02:52:34;0.77;;;0.40;;
11006;SDS011;8186;57.652;11.968;2024-01-15T02:55:01;0.40;;;0.40;;
11006;SDS011;8186;57.652;11.968;2024-01-15T02:57:29;2.50;;;0.50;;
11006;SDS011;8186;57.652;11.968;2024-01-15T02:59:56;0.50;;;0.40;;
11006;SDS011;8186;57.652;11.968;2024-01-15T03:02:23;0.30;;;0.30;;
11006;SDS011;8186;57.652;11.968;2024-01-15T03:04:49;0.30;;;0.30;;
11006;SDS011;8186;57.652;11.968;2024-01-15T03:07:16;1.23;;;0.40;;
11006;SDS011;8186;57.652;11.968;2024-01-15T03:09:43;0.70;;;0.40;;
11006;SDS011;8186;57.652;11.968;2024-01-15T03:12:10;0.40;;;0.40;;
11006;SDS011;8186;57.652;11.968;2024-01-15T03:14:38;0.60;;;0.60;;
11006;SDS011;8186;57.652;11.968;2024-01-15T03:17:05;0.93;;;0.60;;
11006;SDS011;8186;57.652;11.968;2024-01-15T03:19:34;0.63;;;0.50;;
11006;SDS011;8186;57.652;11.968;2024-01-15T03:22:01;1.33;;;0.40;;
11006;SDS011;8186;57.652;11.968;2024-01-15T03:24:28;0.60;;;0.50;;
11006;SDS011;8186;57.652;11.968;2024-01-15T03:26:55;1.00;;;0.50;;
11006;SDS011;8186;57.652;11.968;2024-01-15T03:29:22;0.97;;;0.40;;
11006;SDS011;8186;57.652;11.968;2024-01-15T03:31:50;0.30;;;0.30;;
11006;SDS011;8186;57.652;11.968;2024-01-15T03:34:17;0.80;;;0.50;;
11006;SDS011;8186;57.652;11.968;2024-01-15T03:36:44;2.23;;;0.40;;
11006;SDS011;8186;57.652;11.968;2024-01-15T03:39:10;0.47;;;0.47;;
11006;SDS011;8186;57.652;11.968;2024-01-15T03:41:37;0.50;;;0.40;;
11006;SDS011;8186;57.652;11.968;2024-01-15T03:44:04;0.43;;;0.43;;
11006;SDS011;8186;57.652;11.968;2024-01-15T03:46:31;0.57;;;0.50;;
11006;SDS011;8186;57.652;11.968;2024-01-15T03:48:59;1.23;;;0.50;;
11006;SDS011;8186;57.652;11.968;2024-01-15T03:51:26;0.60;;;0.60;;
11006;SDS011;8186;57.652;11.968;2024-01-15T03:53:53;1.30;;;0.67;;
11006;SDS011;8186;57.652;11.968;2024-01-15T03:56:19;0.57;;;0.43;;
11006;SDS011;8186;57.652;11.968;2024-01-15T03:58:46;0.63;;;0.50;;
11006;SDS011;8186;57.652;11.968;2024-01-15T04:01:13;0.37;;;0.37;;
11006;SDS011;8186;57.652;11.968;2024-01-15T04:03:39;0.40;;;0.40;;
11006;SDS011;8186;57.652;11.968;2024-01-15T04:06:07;0.77;;;0.57;;
11006;SDS011;8186;57.652;11.968;2024-01-15T04:08:34;0.40;;;0.40;;
11006;SDS011;8186;57.652;11.968;2024-01-15T04:11:01;1.37;;;0.70;;
11006;SDS011;8186;57.652;11.968;2024-01-15T04:13:28;0.40;;;0.40;;
11006;SDS011;8186;57.652;11.968;2024-01-15T04:15:57;0.73;;;0.50;;
11006;SDS011;8186;57.652;11.968;2024-01-15T04:18:23;2.03;;;0.43;;
11006;SDS011;8186;57.652;11.968;2024-01-15T04:20:50;1.00;;;0.50;;
11006;SDS011;8186;57.652;11.968;2024-01-15T04:23:18;2.00;;;0.50;;
11006;SDS011;8186;57.652;11.968;2024-01-15T04:25:45;1.07;;;0.90;;
11006;SDS011;8186;57.652;11.968;2024-01-15T04:28:11;0.90;;;0.77;;
11006;SDS011;8186;57.652;11.968;2024-01-15T04:30:38;2.20;;;0.50;;
11006;SDS011;8186;57.652;11.968;2024-01-15T04:33:05;1.90;;;0.30;;
11006;SDS011;8186;57.652;11.968;2024-01-15T04:35:32;1.07;;;0.40;;
11006;SDS011;8186;57.652;11.968;2024-01-15T04:37:59;2.47;;;0.30;;
11006;SDS011;8186;57.652;11.968;2024-01-15T04:40:28;0.83;;;0.40;;
11006;SDS011;8186;57.652;11.968;2024-01-15T04:42:54;0.67;;;0.37;;
11006;SDS011;8186;57.652;11.968;2024-01-15T04:45:21;1.20;;;0.37;;
11006;SDS011;8186;57.652;11.968;2024-01-15T04:47:48;2.13;;;0.50;;
11006;SDS011;8186;57.652;11.968;2024-01-15T04:50:14;0.47;;;0.40;;
11006;SDS011;8186;57.652;11.968;2024-01-15T04:52:42;0.30;;;0.30;;
11006;SDS011;8186;57.652;11.968;2024-01-15T04:55:09;0.83;;;0.63;;
11006;SDS011;8186;57.652;11.968;2024-01-15T04:57:37;0.70;;;0.50;;
11006;SDS011;8186;57.652;11.968;2024-01-15T05:00:04;1.60;;;0.47;;
11006;SDS011;8186;57.652;11.968;2024-01-15T05:02:31;0.50;;;0.40;;
11006;SDS011;8186;57.652;11.968;2024-01-15T05:04:58;0.30;;;0.30;;
11006;SDS011;8186;57.652;11.968;2024-01-15T05:07:25;1.33;;;0.57;;
11006;SDS011;8186;57.652;11.968;2024-01-15T05:09:51;1.00;;;0.60;;
11006;SDS011;8186;57.652;11.968;2024-01-15T05:12:18;0.67;;;0.30;;
11006;SDS011;8186;57.652;11.968;2024-01-15T05:14:46;0.30;;;0.30;;
11006;SDS011;8186;57.652;11.968;2024-01-15T05:17:13;0.40;;;0.40;;
11006;SDS011;8186;57.652;11.968;2024-01-15T05:19:39;2.07;;;0.30;;
11006;SDS011;8186;57.652;11.968;2024-01-15T05:22:06;1.17;;;0.50;;
11006;SDS011;8186;57.652;11.968;2024-01-15T05:24:33;1.37;;;0.50;;
11006;SDS011;8186;57.652;11.968;2024-01-15T05:27:00;0.60;;;0.47;;
11006;SDS011;8186;57.652;11.968;2024-01-15T05:29:26;0.50;;;0.50;;
11006;SDS011;8186;57.652;11.968;2024-01-15T05:31:54;1.77;;;0.50;;
11006;SDS011;8186;57.652;11.968;2024-01-15T05:34:21;0.50;;;0.33;;
11006;SDS011;8186;57.652;11.968;2024-01-15T05:36:48;0.77;;;0.30;;
11006;SDS011;8186;57.652;11.968;2024-01-15T05:39:14;0.60;;;0.30;;
11006;SDS011;8186;57.652;11.968;2024-01-15T05:41:41;0.30;;;0.30;;
11006;SDS011;8186;57.652;11.968;2024-01-15T05:44:08;0.53;;;0.40;;
11006;SDS011;8186;57.652;11.968;2024-01-15T05:46:35;0.63;;;0.30;;
11006;SDS011;8186;57.652;11.968;2024-01-15T05:49:03;1.10;;;1.00;;
11006;SDS011;8186;57.652;11.968;2024-01-15T05:51:30;0.30;;;0.30;;
11006;SDS011;8186;57.652;11.968;2024-01-15T05:53:56;1.07;;;0.60;;
11006;SDS011;8186;57.652;11.968;2024-01-15T05:56:23;0.30;;;0.30;;
11006;SDS011;8186;57.652;11.968;2024-01-15T05:58:50;0.40;;;0.40;;
11006;SDS011;8186;57.652;11.968;2024-01-15T06:01:17;0.30;;;0.30;;
11006;SDS011;8186;57.652;11.968;2024-01-15T06:03:43;1.47;;;0.53;;
11006;SDS011;8186;57.652;11.968;2024-01-15T06:06:12;1.07;;;0.40;;
11006;SDS011;8186;57.652;11.968;2024-01-15T06:08:38;0.50;;;0.20;;
11006;SDS011;8186;57.652;11.968;2024-01-15T06:11:06;0.80;;;0.30;;
11006;SDS011;8186;57.652;11.968;2024-01-15T06:13:33;1.70;;;0.40;;
11006;SDS011;8186;57.652;11.968;2024-01-15T06:15:59;0.40;;;0.30;;
11006;SDS011;8186;57.652;11.968;2024-01-15T06:18:26;0.40;;;0.40;;
11006;SDS011;8186;57.652;11.968;2024-01-15T06:20:53;0.57;;;0.40;;
11006;SDS011;8186;57.652;11.968;2024-01-15T06:23:21;0.57;;;0.40;;
11006;SDS011;8186;57.652;11.968;2024-01-15T06:25:48;0.30;;;0.30;;
11006;SDS011;8186;57.652;11.968;2024-01-15T06:28:14;1.50;;;0.50;;
11006;SDS011;8186;57.652;11.968;2024-01-15T06:30:41;0.40;;;0.40;;
11006;SDS011;8186;57.652;11.968;2024-01-15T06:33:08;0.90;;;0.40;;
11006;SDS011;8186;57.652;11.968;2024-01-15T06:35:35;0.57;;;0.30;;
11006;SDS011;8186;57.652;11.968;2024-01-15T06:38:01;2.30;;;0.30;;
11006;SDS011;8186;57.652;11.968;2024-01-15T06:40:29;0.83;;;0.40;;
11006;SDS011;8186;57.652;11.968;2024-01-15T06:42:56;0.70;;;0.53;;
11006;SDS011;8186;57.652;11.968;2024-01-15T06:45:23;2.10;;;0.50;;
11006;SDS011;8186;57.652;11.968;2024-01-15T06:47:50;1.20;;;0.70;;
11006;SDS011;8186;57.652;11.968;2024-01-15T06:50:16;1.00;;;0.60;;
11006;SDS011;8186;57.652;11.968;2024-01-15T06:52:43;0.77;;;0.60;;
11006;SDS011;8186;57.652;11.968;2024-01-15T06:55:10;2.53;;;0.60;;
11006;SDS011;8186;57.652;11.968;2024-01-15T06:57:38;1.53;;;0.90;;
11006;SDS011;8186;57.652;11.968;2024-01-15T07:00:05;1.53;;;0.90;;
11006;SDS011;8186;57.652;11.968;2024-01-15T07:02:34;0.50;;;0.50;;
11006;SDS011;8186;57.652;11.968;2024-01-15T07:05:01;2.70;;;0.70;;
11006;SDS011;8186;57.652;11.968;2024-01-15T07:07:30;1.33;;;0.60;;
11006;SDS011;8186;57.652;11.968;2024-01-15T07:09:57;1.00;;;0.80;;
11006;SDS011;8186;57.652;11.968;2024-01-15T07:12:23;1.70;;;0.67;;
11006;SDS011;8186;57.652;11.968;2024-01-15T07:14:51;1.73;;;0.50;;
11006;SDS011;8186;57.652;11.968;2024-01-15T07:17:18;3.17;;;0.90;;
11006;SDS011;8186;57.652;11.968;2024-01-15T07:19:45;2.83;;;0.80;;
11006;SDS011;8186;57.652;11.968;2024-01-15T07:22:12;0.63;;;0.60;;
11006;SDS011;8186;57.652;11.968;2024-01-15T07:24:40;1.80;;;0.67;;
11006;SDS011;8186;57.652;11.968;2024-01-15T07:27:07;0.97;;;0.50;;
11006;SDS011;8186;57.652;11.968;2024-01-15T07:29:34;2.00;;;0.77;;
11006;SDS011;8186;57.652;11.968;2024-01-15T07:32:04;1.90;;;0.50;;
11006;SDS011;8186;57.652;11.968;2024-01-15T07:34:32;1.53;;;0.50;;
11006;SDS011;8186;57.652;11.968;2024-01-15T07:36:59;0.60;;;0.50;;
11006;SDS011;8186;57.652;11.968;2024-01-15T07:39:26;1.07;;;0.60;;
11006;SDS011;8186;57.652;11.968;2024-01-15T07:41:54;1.13;;;0.60;;
11006;SDS011;8186;57.652;11.968;2024-01-15T07:44:21;2.90;;;0.60;;
11006;SDS011;8186;57.652;11.968;2024-01-15T07:46:47;0.83;;;0.47;;
11006;SDS011;8186;57.652;11.968;2024-01-15T07:49:15;0.90;;;0.47;;
11006;SDS011;8186;57.652;11.968;2024-01-15T07:51:42;0.47;;;0.47;;
11006;SDS011;8186;57.652;11.968;2024-01-15T07:54:09;0.67;;;0.50;;
11006;SDS011;8186;57.652;11.968;2024-01-15T07:59:22;2.30;;;0.50;;
11006;SDS011;8186;57.652;11.968;2024-01-15T08:01:49;1.27;;;0.67;;
11006;SDS011;8186;57.652;11.968;2024-01-15T08:04:17;1.13;;;0.50;;
11006;SDS011;8186;57.652;11.968;2024-01-15T08:06:44;0.50;;;0.40;;
11006;SDS011;8186;57.652;11.968;2024-01-15T08:09:11;0.90;;;0.53;;
11006;SDS011;8186;57.652;11.968;2024-01-15T08:11:39;1.00;;;0.57;;
11006;SDS011;8186;57.652;11.968;2024-01-15T08:14:06;0.83;;;0.43;;
11006;SDS011;8186;57.652;11.968;2024-01-15T08:16:33;0.50;;;0.40;;
11006;SDS011;8186;57.652;11.968;2024-01-15T08:19:00;0.53;;;0.50;;
11006;SDS011;8186;57.652;11.968;2024-01-15T08:21:28;2.13;;;0.67;;
11006;SDS011;8186;57.652;11.968;2024-01-15T08:23:57;0.87;;;0.50;;
11006;SDS011;8186;57.652;11.968;2024-01-15T08:26:23;0.73;;;0.60;;
11006;SDS011;8186;57.652;11.968;2024-01-15T08:28:50;0.60;;;0.60;;
11006;SDS011;8186;57.652;11.968;2024-01-15T08:31:17;0.80;;;0.50;;
11006;SDS011;8186;57.652;11.968;2024-01-15T08:33:44;1.33;;;0.70;;
11006;SDS011;8186;57.652;11.968;2024-01-15T08:36:11;1.17;;;0.60;;
11006;SDS011;8186;57.652;11.968;2024-01-15T08:38:39;2.37;;;0.67;;
11006;SDS011;8186;57.652;11.968;2024-01-15T08:41:06;2.63;;;0.63;;
11006;SDS011;8186;57.652;11.968;2024-01-15T08:43:33;1.30;;;0.50;;
11006;SDS011;8186;57.652;11.968;2024-01-15T08:46:00;1.40;;;0.70;;
11006;SDS011;8186;57.652;11.968;2024-01-15T08:48:27;0.80;;;0.50;;
11006;SDS011;8186;57.652;11.968;2024-01-15T08:50:54;1.23;;;0.50;;
11006;SDS011;8186;57.652;11.968;2024-01-15T08:53:22;2.27;;;0.50;;
11006;SDS011;8186;57.652;11.968;2024-01-15T08:55:50;0.60;;;0.60;;
11006;SDS011;8186;57.652;11.968;2024-01-15T08:58:16;1.83;;;0.60;;
11006;SDS011;8186;57.652;11.968;2024-01-15T09:00:44;1.07;;;0.60;;
11006;SDS011;8186;57.652;11.968;2024-01-15T09:03:13;0.50;;;0.40;;
11006;SDS011;8186;57.652;11.968;2024-01-15T09:05:40;0.53;;;0.53;;
11006;SDS011;8186;57.652;11.968;2024-01-15T09:08:07;0.60;;;0.50;;
11006;SDS011;8186;57.652;11.968;2024-01-15T09:10:34;2.00;;;0.63;;
11006;SDS011;8186;57.652;11.968;2024-01-15T09:13:02;1.13;;;0.80;;
11006;SDS011;8186;57.652;11.968;2024-01-15T09:15:30;1.93;;;0.80;;
11006;SDS011;8186;57.652;11.968;2024-01-15T09:17:57;0.50;;;0.40;;
11006;SDS011;8186;57.652;11.968;2024-01-15T09:20:24;2.50;;;0.60;;
11006;SDS011;8186;57.652;11.968;2024-01-15T09:22:52;1.27;;;0.63;;
11006;SDS011;8186;57.652;11.968;2024-01-15T09:25:19;1.60;;;0.60;;
11006;SDS011;8186;57.652;11.968;2024-01-15T09:27:46;0.60;;;0.50;;
11006;SDS011;8186;57.652;11.968;2024-01-15T09:30:15;1.00;;;0.47;;
11006;SDS011;8186;57.652;11.968;2024-01-15T09:32:41;1.40;;;0.80;;
11006;SDS011;8186;57.652;11.968;2024-01-15T09:35:08;0.83;;;0.50;;
11006;SDS011;8186;57.652;11.968;2024-01-15T09:37:35;3.33;;;0.90;;
11006;SDS011;8186;57.652;11.968;2024-01-15T09:40:05;3.00;;;0.60;;
11006;SDS011;8186;57.652;11.968;2024-01-15T09:42:33;0.87;;;0.40;;
11006;SDS011;8186;57.652;11.968;2024-01-15T09:45:00;1.87;;;0.50;;
11006;SDS011;8186;57.652;11.968;2024-01-15T09:47:30;0.50;;;0.50;;
11006;SDS011;8186;57.652;11.968;2024-01-15T09:49:56;1.53;;;0.60;;
11006;SDS011;8186;57.652;11.968;2024-01-15T09:52:24;0.73;;;0.53;;
11006;SDS011;8186;57.652;11.968;2024-01-15T09:54:51;3.50;;;0.70;;
11006;SDS011;8186;57.652;11.968;2024-01-15T09:57:18;1.37;;;0.80;;
11006;SDS011;8186;57.652;11.968;2024-01-15T09:59:46;1.47;;;0.57;;
11006;SDS011;8186;57.652;11.968;2024-01-15T10:02:13;2.13;;;1.23;;
11006;SDS011;8186;57.652;11.968;2024-01-15T10:04:45;1.13;;;0.40;;
11006;SDS011;8186;57.652;11.968;2024-01-15T10:07:12;0.70;;;0.50;;
11006;SDS011;8186;57.652;11.968;2024-01-15T10:09:41;0.60;;;0.47;;
11006;SDS011;8186;57.652;11.968;2024-01-15T10:12:08;1.37;;;0.70;;
11006;SDS011;8186;57.652;11.968;2024-01-15T10:14:35;1.40;;;0.60;;
11006;SDS011;8186;57.652;11.968;2024-01-15T10:17:08;1.40;;;0.60;;
11006;SDS011;8186;57.652;11.968;2024-01-15T10:19:38;3.90;;;0.60;;
11006;SDS011;8186;57.652;11.968;2024-01-15T10:22:08;1.40;;;0.60;;
11006;SDS011;8186;57.652;11.968;2024-01-15T10:24:35;0.70;;;0.57;;
11006;SDS011;8186;57.652;11.968;2024-01-15T10:27:05;0.70;;;0.50;;
11006;SDS011;8186;57.652;11.968;2024-01-15T10:29:33;2.73;;;0.50;;
11006;SDS011;8186;57.652;11.968;2024-01-15T10:31:59;1.60;;;0.70;;
11006;SDS011;8186;57.652;11.968;2024-01-15T10:34:27;0.83;;;0.50;;
11006;SDS011;8186;57.652;11.968;2024-01-15T10:36:54;0.50;;;0.50;;
11006;SDS011;8186;57.652;11.968;2024-01-15T10:39:22;1.13;;;0.50;;
11006;SDS011;8186;57.652;11.968;2024-01-15T10:41:49;1.03;;;0.50;;
11006;SDS011;8186;57.652;11.968;2024-01-15T10:44:16;0.60;;;0.60;;
11006;SDS011;8186;57.652;11.968;2024-01-15T10:46:43;2.97;;;1.07;;
11006;SDS011;8186;57.652;11.968;2024-01-15T10:49:11;1.13;;;0.40;;
11006;SDS011;8186;57.652;11.968;2024-01-15T10:51:38;1.87;;;0.50;;
11006;SDS011;8186;57.652;11.968;2024-01-15T10:54:05;2.93;;;0.93;;
11006;SDS011;8186;57.652;11.968;2024-01-15T10:56:33;1.23;;;0.50;;
11006;SDS011;8186;57.652;11.968;2024-01-15T10:59:00;1.97;;;0.40;;
11006;SDS011;8186;57.652;11.968;2024-01-15T11:01:27;0.70;;;0.60;;
11006;SDS011;8186;57.652;11.968;2024-01-15T11:03:54;1.20;;;0.50;;
11006;SDS011;8186;57.652;11.968;2024-01-15T11:06:23;3.03;;;0.60;;
11006;SDS011;8186;57.652;11.968;2024-01-15T11:08:51;0.90;;;0.50;;
11006;SDS011;8186;57.652;11.968;2024-01-15T11:11:19;0.47;;;0.30;;
11006;SDS011;8186;57.652;11.968;2024-01-15T11:13:48;1.77;;;0.53;;
11006;SDS011;8186;57.652;11.968;2024-01-15T11:16:17;0.90;;;0.60;;
11006;SDS011;8186;57.652;11.968;2024-01-15T11:19:02;1.77;;;0.60;;
11006;SDS011;8186;57.652;11.968;2024-01-15T11:21:31;0.60;;;0.30;;
11006;SDS011;8186;57.652;11.968;2024-01-15T11:23:58;1.17;;;0.50;;
11006;SDS011;8186;57.652;11.968;2024-01-15T11:26:33;0.50;;;0.40;;
11006;SDS011;8186;57.652;11.968;2024-01-15T11:29:03;1.40;;;0.40;;
11006;SDS011;8186;57.652;11.968;2024-01-15T11:37:17;1.00;;;0.60;;
11006;SDS011;8186;57.652;11.968;2024-01-15T11:39:43;0.50;;;0.50;;
11006;SDS011;8186;57.652;11.968;2024-01-15T11:42:12;1.90;;;0.40;;
11006;SDS011;8186;57.652;11.968;2024-01-15T11:44:41;2.37;;;0.70;;
11006;SDS011;8186;57.652;11.968;2024-01-15T11:47:08;1.57;;;0.50;;
11006;SDS011;8186;57.652;11.968;2024-01-15T11:52:26;0.47;;;0.47;;
11006;SDS011;8186;57.652;11.968;2024-01-15T11:54:55;1.47;;;0.50;;
11006;SDS011;8186;57.652;11.968;2024-01-15T11:57:30;0.80;;;0.50;;
11006;SDS011;8186;57.652;11.968;2024-01-15T12:00:01;2.00;;;0.53;;
11006;SDS011;8186;57.652;11.968;2024-01-15T12:02:29;0.53;;;0.53;;
11006;SDS011;8186;57.652;11.968;2024-01-15T12:04:56;0.50;;;0.40;;
11006;SDS011;8186;57.652;11.968;2024-01-15T12:07:23;2.23;;;0.50;;
11006;SDS011;8186;57.652;11.968;2024-01-15T12:09:49;0.70;;;0.47;;
11006;SDS011;8186;57.652;11.968;2024-01-15T12:12:17;2.60;;;1.17;;
11006;SDS011;8186;57.652;11.968;2024-01-15T12:14:50;1.77;;;0.60;;
11006;SDS011;8186;57.652;11.968;2024-01-15T12:17:18;1.23;;;0.50;;
11006;SDS011;8186;57.652;11.968;2024-01-15T12:19:45;2.00;;;0.70;;
11006;SDS011;8186;57.652;11.968;2024-01-15T12:22:12;1.03;;;0.60;;
11006;SDS011;8186;57.652;11.968;2024-01-15T12:24:39;1.00;;;0.60;;
11006;SDS011;8186;57.652;11.968;2024-01-15T12:27:05;0.53;;;0.33;;
11006;SDS011;8186;57.652;11.968;2024-01-15T12:29:33;1.73;;;0.80;;
11006;SDS011;8186;57.652;11.968;2024-01-15T12:32:00;0.50;;;0.50;;
11006;SDS011;8186;57.652;11.968;2024-01-15T12:34:30;0.60;;;0.60;;
11006;SDS011;8186;57.652;11.968;2024-01-15T12:36:57;1.90;;;0.53;;
11006;SDS011;8186;57.652;11.968;2024-01-15T12:39:24;0.53;;;0.43;;
11006;SDS011;8186;57.652;11.968;2024-01-15T12:41:51;1.47;;;0.50;;
11006;SDS011;8186;57.652;11.968;2024-01-15T12:44:18;1.20;;;0.60;;
11006;SDS011;8186;57.652;11.968;2024-01-15T12:46:45;1.03;;;0.70;;
11006;SDS011;8186;57.652;11.968;2024-01-15T12:49:12;0.83;;;0.50;;
11006;SDS011;8186;57.652;11.968;2024-01-15T12:51:40;1.10;;;0.50;;
11006;SDS011;8186;57.652;11.968;2024-01-15T12:54:07;0.63;;;0.60;;
11006;SDS011;8186;57.652;11.968;2024-01-15T12:56:34;1.23;;;0.70;;
11006;SDS011;8186;57.652;11.968;2024-01-15T12:59:01;2.57;;;0.93;;
11006;SDS011;8186;57.652;11.968;2024-01-15T13:01:27;1.67;;;0.73;;
11006;SDS011;8186;57.652;11.968;2024-01-15T13:03:54;0.80;;;0.50;;
11006;SDS011;8186;57.652;11.968;2024-01-15T13:06:21;0.73;;;0.57;;
11006;SDS011;8186;57.652;11.968;2024-01-15T13:08:49;2.60;;;0.60;;
11006;SDS011;8186;57.652;11.968;2024-01-15T13:11:16;2.43;;;0.83;;
11006;SDS011;8186;57.652;11.968;2024-01-15T13:13:43;2.13;;;0.60;;
11006;SDS011;8186;57.652;11.968;2024-01-15T13:16:09;2.27;;;0.90;;
11006;SDS011;8186;57.652;11.968;2024-01-15T13:18:36;2.50;;;0.70;;
11006;SDS011;8186;57.652;11.968;2024-01-15T13:21:03;3.53;;;0.60;;
11006;SDS011;8186;57.652;11.968;2024-01-15T13:23:30;1.37;;;0.80;;
11006;SDS011;8186;57.652;11.968;2024-01-15T13:25:58;0.60;;;0.40;;
11006;SDS011;8186;57.652;11.968;2024-01-15T13:28:25;1.30;;;0.77;;
11006;SDS011;8186;57.652;11.968;2024-01-15T13:30:52;1.60;;;0.47;;
11006;SDS011;8186;57.652;11.968;2024-01-15T13:33:19;0.47;;;0.43;;
11006;SDS011;8186;57.652;11.968;2024-01-15T13:35:45;1.73;;;0.70;;
11006;SDS011;8186;57.652;11.968;2024-01-15T13:38:15;0.97;;;0.60;;
11006;SDS011;8186;57.652;11.968;2024-01-15T13:40:41;0.80;;;0.60;;
11006;SDS011;8186;57.652;11.968;2024-01-15T13:43:11;2.93;;;1.37;;
11006;SDS011;8186;57.652;11.968;2024-01-15T13:45:39;2.43;;;0.93;;
11006;SDS011;8186;57.652;11.968;2024-01-15T13:48:07;2.63;;;1.10;;
11006;SDS011;8186;57.652;11.968;2024-01-15T13:50:34;1.20;;;0.50;;
11006;SDS011;8186;57.652;11.968;2024-01-15T13:53:01;1.10;;;0.73;;
11006;SDS011;8186;57.652;11.968;2024-01-15T13:55:29;1.00;;;0.77;;
11006;SDS011;8186;57.652;11.968;2024-01-15T13:57:55;1.07;;;0.60;;
11006;SDS011;8186;57.652;11.968;2024-01-15T14:00:24;0.47;;;0.40;;
11006;SDS011;8186;57.652;11.968;2024-01-15T14:02:50;0.80;;;0.53;;
11006;SDS011;8186;57.652;11.968;2024-01-15T14:05:17;0.97;;;0.60;;
11006;SDS011;8186;57.652;11.968;2024-01-15T14:07:44;1.57;;;1.03;;
11006;SDS011;8186;57.652;11.968;2024-01-15T14:10:11;1.53;;;0.83;;
11006;SDS011;8186;57.652;11.968;2024-01-15T14:12:37;1.97;;;0.80;;
11006;SDS011;8186;57.652;11.968;2024-01-15T14:15:05;1.60;;;0.73;;
11006;SDS011;8186;57.652;11.968;2024-01-15T14:17:33;2.67;;;1.13;;
11006;SDS011;8186;57.652;11.968;2024-01-15T14:20:00;2.30;;;1.30;;
11006;SDS011;8186;57.652;11.968;2024-01-15T14:22:30;4.37;;;1.43;;
11006;SDS011;8186;57.652;11.968;2024-01-15T14:24:57;1.30;;;0.73;;
11006;SDS011;8186;57.652;11.968;2024-01-15T14:27:24;3.40;;;0.90;;
11006;SDS011;8186;57.652;11.968;2024-01-15T14:29:51;1.97;;;0.90;;
11006;SDS011;8186;57.652;11.968;2024-01-15T14:32:17;1.10;;;0.77;;
11006;SDS011;8186;57.652;11.968;2024-01-15T14:34:46;0.53;;;0.47;;
11006;SDS011;8186;57.652;11.968;2024-01-15T14:37:13;1.07;;;0.50;;
11006;SDS011;8186;57.652;11.968;2024-01-15T14:39:40;1.33;;;0.57;;
11006;SDS011;8186;57.652;11.968;2024-01-15T14:42:06;0.90;;;0.60;;
11006;SDS011;8186;57.652;11.968;2024-01-15T14:44:33;1.47;;;0.50;;
11006;SDS011;8186;57.652;11.968;2024-01-15T14:47:01;0.50;;;0.50;;
11006;SDS011;8186;57.652;11.968;2024-01-15T14:49:28;0.60;;;0.50;;
11006;SDS011;8186;57.652;11.968;2024-01-15T14:51:56;0.50;;;0.40;;
11006;SDS011;8186;57.652;11.968;2024-01-15T14:54:23;0.83;;;0.63;;
11006;SDS011;8186;57.652;11.968;2024-01-15T14:56:50;0.70;;;0.50;;
11006;SDS011;8186;57.652;11.968;2024-01-15T14:59:17;3.60;;;0.70;;